createdAt,value
2023-04-09T00:01:14.605Z,74.50
2023-04-09T00:03:41.628Z,74.50
2023-04-09T00:06:08.723Z,74.70
2023-04-09T00:08:35.645Z,74.70
2023-04-09T00:11:02.513Z,74.60
2023-04-09T00:13:38.415Z,74.70
2023-04-09T00:16:05.894Z,74.60
2023-04-09T00:18:32.842Z,74.70
2023-04-09T00:20:59.720Z,74.80
2023-04-09T00:23:26.728Z,75.00
2023-04-09T00:25:53.689Z,75.00
2023-04-09T00:28:20.813Z,75.10
2023-04-09T00:30:47.663Z,74.70
2023-04-09T00:33:14.595Z,74.70
2023-04-09T00:35:41.579Z,74.80
2023-04-09T00:38:08.526Z,74.80
2023-04-09T00:40:35.603Z,74.60
2023-04-09T00:43:02.602Z,74.70
2023-04-09T00:45:29.627Z,74.80
2023-04-09T00:47:56.933Z,74.70
2023-04-09T00:50:23.912Z,74.60
2023-04-09T00:52:51.472Z,74.50
2023-04-09T00:55:18.753Z,74.60
2023-04-09T00:57:45.824Z,74.40
2023-04-09T01:00:13.408Z,74.40
2023-04-09T01:02:41.038Z,74.50
2023-04-09T01:05:08.567Z,74.50
2023-04-09T01:07:47.486Z,74.40
2023-04-09T01:10:23.254Z,74.60
2023-04-09T01:13:02.098Z,74.70
2023-04-09T01:15:31.478Z,74.70
2023-04-09T01:18:14.906Z,74.70
2023-04-09T01:20:49.846Z,74.70
2023-04-09T01:23:20.131Z,74.70
2023-04-09T01:25:47.014Z,74.60
2023-04-09T01:28:26.328Z,74.80
2023-04-09T01:30:56.719Z,75.00
2023-04-09T01:33:24.662Z,74.80
2023-04-09T01:35:52.747Z,75.10
2023-04-09T01:38:20.959Z,74.80
2023-04-09T01:40:49.063Z,74.60
2023-04-09T01:43:16.205Z,74.80
2023-04-09T01:45:43.995Z,74.80
2023-04-09T01:48:11.684Z,75.00
2023-04-09T01:50:38.769Z,75.10
2023-04-09T01:53:05.936Z,75.10
2023-04-09T01:55:32.811Z,75.00
2023-04-09T01:57:59.778Z,75.00
2023-04-09T02:00:31.176Z,74.80
2023-04-09T02:03:01.165Z,75.00
2023-04-09T02:05:29.868Z,75.10
2023-04-09T02:07:57.473Z,75.10
2023-04-09T02:10:26.104Z,75.10
2023-04-09T02:12:53.674Z,75.10
2023-04-09T02:15:21.809Z,75.10
2023-04-09T02:17:49.120Z,75.10
2023-04-09T02:20:19.391Z,75.30
2023-04-09T02:22:46.932Z,75.20
2023-04-09T02:25:13.934Z,75.40
2023-04-09T02:27:40.817Z,75.50
2023-04-09T02:30:08.330Z,75.80
2023-04-09T02:32:35.219Z,75.70
2023-04-09T02:35:02.138Z,75.90
2023-04-09T02:37:29.154Z,76.00
2023-04-09T02:39:56.060Z,76.10
2023-04-09T02:42:23.075Z,76.10
2023-04-09T02:44:49.889Z,76.10
2023-04-09T02:47:16.840Z,76.20
2023-04-09T02:49:43.895Z,76.20
2023-04-09T02:52:11.552Z,76.30
2023-04-09T02:54:38.444Z,76.40
2023-04-09T02:57:05.722Z,76.50
2023-04-09T02:59:34.643Z,76.60
2023-04-09T03:02:01.637Z,76.50
2023-04-09T03:04:28.707Z,76.40
2023-04-09T03:06:55.677Z,76.50
2023-04-09T03:09:22.607Z,76.70
2023-04-09T03:11:49.548Z,76.80
2023-04-09T03:14:16.551Z,76.80
2023-04-09T03:16:43.421Z,76.90
2023-04-09T03:19:10.343Z,76.90
2023-04-09T03:21:37.222Z,77.00
2023-04-09T03:24:04.447Z,76.80
2023-04-09T03:26:36.372Z,76.80
2023-04-09T03:29:03.707Z,76.90
2023-04-09T03:31:31.000Z,76.90
2023-04-09T03:33:58.875Z,76.90
2023-04-09T03:36:28.082Z,77.00
2023-04-09T03:38:55.082Z,76.90
2023-04-09T03:41:22.102Z,76.90
2023-04-09T03:43:49.012Z,76.90
2023-04-09T03:46:16.719Z,77.00
2023-04-09T03:48:44.822Z,77.10
2023-04-09T03:51:15.039Z,77.00
2023-04-09T03:53:42.262Z,77.20
2023-04-09T03:56:09.519Z,77.10
2023-04-09T03:58:36.816Z,77.20
2023-04-09T04:01:04.038Z,77.10
2023-04-09T04:03:31.062Z,76.90
2023-04-09T04:06:02.840Z,77.00
2023-04-09T04:08:29.819Z,77.10
2023-04-09T04:10:56.865Z,76.90
2023-04-09T04:13:23.807Z,77.00
2023-04-09T04:15:50.911Z,77.10
2023-04-09T04:18:17.885Z,77.00
2023-04-09T04:20:44.764Z,77.10
2023-04-09T04:23:11.722Z,77.20
2023-04-09T04:25:41.531Z,77.20
2023-04-09T04:28:08.652Z,77.20
2023-04-09T04:30:35.750Z,77.10
2023-04-09T04:33:02.626Z,77.00
2023-04-09T04:35:29.611Z,77.10
2023-04-09T04:37:56.510Z,77.00
2023-04-09T04:40:23.496Z,76.80
2023-04-09T04:42:50.385Z,76.80
2023-04-09T04:45:17.392Z,76.70
2023-04-09T04:47:44.514Z,76.70
2023-04-09T04:50:11.459Z,76.70
2023-04-09T04:52:40.466Z,76.80
2023-04-09T04:55:07.546Z,76.90
2023-04-09T04:57:34.412Z,76.80
2023-04-09T05:00:01.360Z,76.70
2023-04-09T05:02:28.332Z,76.70
2023-04-09T05:04:55.537Z,76.70
2023-04-09T05:07:22.421Z,76.70
2023-04-09T05:09:49.542Z,76.60
2023-04-09T05:12:18.144Z,76.40
2023-04-09T05:14:45.090Z,76.40
2023-04-09T05:17:12.058Z,76.50
2023-04-09T05:19:38.926Z,76.50
2023-04-09T05:22:05.865Z,76.50
2023-04-09T05:24:32.732Z,76.50
2023-04-09T05:26:59.717Z,76.60
2023-04-09T05:29:26.619Z,76.70
2023-04-09T05:31:53.584Z,76.70
2023-04-09T05:34:20.687Z,76.60
2023-04-09T05:36:47.676Z,76.60
2023-04-09T05:39:14.659Z,76.50
2023-04-09T05:41:42.250Z,76.60
2023-04-09T05:44:09.145Z,76.60
2023-04-09T05:46:36.074Z,76.50
2023-04-09T05:49:03.305Z,76.50
2023-04-09T05:51:30.173Z,76.60
2023-04-09T05:53:57.154Z,76.60
2023-04-09T05:56:24.206Z,76.70
2023-04-09T05:58:51.543Z,76.60
2023-04-09T06:01:18.439Z,76.60
2023-04-09T06:03:45.656Z,76.40
2023-04-09T06:06:13.418Z,76.40
2023-04-09T06:08:40.407Z,76.40
2023-04-09T06:11:10.670Z,76.30
2023-04-09T06:13:37.848Z,76.40
2023-04-09T06:16:08.824Z,76.40
2023-04-09T06:18:37.010Z,76.30
2023-04-09T06:21:04.951Z,76.20
2023-04-09T06:23:32.873Z,76.40
2023-04-09T06:25:59.985Z,76.30
2023-04-09T06:28:27.536Z,76.20
2023-04-09T06:30:55.536Z,76.20
2023-04-09T06:33:22.643Z,76.30
2023-04-09T06:35:49.768Z,76.20
2023-04-09T06:38:17.201Z,76.10
2023-04-09T06:40:44.599Z,76.20
2023-04-09T06:43:11.557Z,76.30
2023-04-09T06:45:40.895Z,76.40
2023-04-09T06:48:08.181Z,76.30
2023-04-09T06:50:36.230Z,76.40
2023-04-09T06:53:03.211Z,76.40
2023-04-09T06:55:30.412Z,76.40
2023-04-09T06:57:57.366Z,76.30
2023-04-09T07:00:24.283Z,76.30
2023-04-09T07:02:51.536Z,76.40
2023-04-09T07:05:19.900Z,76.30
2023-04-09T07:07:46.841Z,76.50
2023-04-09T07:10:13.747Z,76.50
2023-04-09T07:12:40.844Z,76.50
2023-04-09T07:15:08.068Z,76.60
2023-04-09T07:17:35.256Z,76.70
2023-04-09T07:20:02.652Z,76.70
2023-04-09T07:22:29.971Z,76.80
2023-04-09T07:24:59.916Z,76.80
2023-04-09T07:27:28.119Z,76.80
2023-04-09T07:29:55.910Z,76.80
2023-04-09T07:32:23.260Z,76.80
2023-04-09T07:34:53.382Z,76.80
2023-04-09T07:37:20.914Z,76.90
2023-04-09T07:39:48.306Z,77.00
2023-04-09T07:42:15.205Z,77.00
2023-04-09T07:44:42.149Z,76.90
2023-04-09T07:47:09.184Z,77.10
2023-04-09T07:49:36.996Z,77.00
2023-04-09T07:52:04.359Z,77.00
2023-04-09T07:54:34.179Z,76.90
2023-04-09T07:57:04.216Z,77.00
2023-04-09T07:59:31.868Z,77.00
2023-04-09T08:01:59.298Z,77.00
2023-04-09T08:04:27.433Z,77.00
2023-04-09T08:06:54.409Z,77.00
2023-04-09T08:09:21.419Z,76.90
2023-04-09T08:11:49.019Z,77.00
2023-04-09T08:14:16.597Z,77.00
2023-04-09T08:16:44.327Z,76.90
2023-04-09T08:19:11.571Z,76.90
2023-04-09T08:21:39.293Z,76.90
2023-04-09T08:24:07.348Z,77.10
2023-04-09T08:26:34.259Z,77.20
2023-04-09T08:29:01.150Z,77.20
2023-04-09T08:31:28.166Z,77.20
2023-04-09T08:33:55.304Z,77.20
2023-04-09T08:36:22.486Z,77.20
2023-04-09T08:38:49.520Z,77.20
2023-04-09T08:41:20.104Z,77.30
2023-04-09T08:46:20.227Z,77.30
2023-04-09T08:48:51.115Z,77.20
2023-04-09T08:51:22.724Z,77.20
2023-04-09T08:53:53.502Z,77.40
2023-04-09T08:56:22.082Z,77.40
2023-04-09T08:58:49.002Z,77.40
2023-04-09T09:01:22.070Z,77.40
2023-04-09T09:03:58.366Z,77.40
2023-04-09T09:06:28.133Z,77.40
2023-04-09T09:09:07.081Z,77.30
2023-04-09T09:11:34.752Z,77.20
2023-04-09T09:14:02.660Z,77.20
2023-04-09T09:16:30.100Z,77.30
2023-04-09T09:18:57.566Z,77.40
2023-04-09T09:21:27.501Z,77.30
2023-04-09T09:23:54.724Z,77.30
2023-04-09T09:26:23.813Z,77.20
2023-04-09T09:28:51.346Z,77.20
2023-04-09T09:31:19.489Z,77.20
2023-04-09T09:33:47.310Z,77.20
2023-04-09T09:36:14.956Z,77.30
2023-04-09T09:38:52.877Z,77.30
2023-04-09T09:41:20.312Z,77.30
2023-04-09T09:43:47.373Z,77.30
2023-04-09T09:46:15.133Z,77.30
2023-04-09T09:48:42.804Z,77.40
2023-04-09T09:51:11.245Z,77.40
2023-04-09T09:53:39.000Z,77.50
2023-04-09T09:56:06.787Z,77.30
2023-04-09T09:58:38.999Z,77.10
2023-04-09T10:01:11.429Z,77.00
2023-04-09T10:03:39.877Z,76.90
2023-04-09T10:06:07.990Z,77.00
2023-04-09T10:08:36.170Z,76.90
2023-04-09T10:11:03.874Z,76.80
2023-04-09T10:13:33.916Z,76.70
2023-04-09T10:16:01.948Z,76.60
2023-04-09T10:18:34.964Z,76.60
2023-04-09T10:21:01.831Z,76.40
2023-04-09T10:23:38.036Z,76.30
2023-04-09T10:26:06.015Z,76.40
2023-04-09T10:28:32.884Z,76.30
2023-04-09T10:30:59.970Z,76.20
2023-04-09T10:33:27.999Z,76.20
2023-04-09T10:35:55.931Z,76.20
2023-04-09T10:38:36.190Z,76.20
2023-04-09T10:41:09.770Z,76.10
2023-04-09T10:43:36.970Z,76.00
2023-04-09T10:46:08.567Z,75.90
2023-04-09T10:48:35.913Z,75.70
2023-04-09T10:51:05.553Z,75.50
2023-04-09T10:53:32.593Z,75.50
2023-04-09T10:55:59.566Z,75.40
2023-04-09T10:58:26.457Z,75.40
2023-04-09T11:00:54.133Z,75.60
2023-04-09T11:03:22.553Z,75.90
2023-04-09T11:05:56.873Z,76.10
2023-04-09T11:08:24.344Z,75.80
2023-04-09T11:10:52.369Z,75.40
2023-04-09T11:13:21.097Z,75.00
2023-04-09T11:15:48.167Z,74.40
2023-04-09T11:18:22.806Z,73.80
2023-04-09T11:20:50.000Z,73.60
2023-04-09T11:23:17.876Z,73.40
2023-04-09T11:25:48.503Z,73.60
2023-04-09T11:28:15.417Z,73.60
2023-04-09T11:30:43.901Z,73.10
2023-04-09T11:33:10.846Z,73.20
2023-04-09T11:35:37.875Z,72.70
2023-04-09T11:38:08.619Z,72.70
2023-04-09T11:40:35.774Z,72.00
2023-04-09T11:43:03.378Z,71.20
2023-04-09T11:45:32.444Z,70.50
2023-04-09T11:47:59.441Z,69.70
2023-04-09T11:50:29.603Z,68.80
2023-04-09T11:52:56.947Z,67.60
2023-04-09T11:55:27.900Z,67.00
2023-04-09T11:57:57.613Z,66.70
2023-04-09T12:00:25.243Z,66.70
2023-04-09T12:02:59.041Z,66.70
2023-04-09T12:05:28.180Z,66.80
2023-04-09T12:08:13.273Z,67.00
2023-04-09T12:10:40.282Z,67.00
2023-04-09T12:13:08.118Z,67.10
2023-04-09T12:15:39.202Z,67.10
2023-04-09T12:18:09.952Z,67.20
2023-04-09T12:20:39.693Z,67.20
2023-04-09T12:23:07.860Z,67.20
2023-04-09T12:25:36.876Z,67.30
2023-04-09T12:28:04.714Z,67.40
2023-04-09T12:30:32.057Z,67.50
2023-04-09T12:32:59.174Z,67.40
2023-04-09T12:35:26.315Z,67.30
2023-04-09T12:37:53.342Z,67.30
2023-04-09T12:40:20.808Z,67.40
2023-04-09T12:42:47.856Z,67.50
2023-04-09T12:45:15.703Z,67.60
2023-04-09T12:47:43.213Z,67.70
2023-04-09T12:50:11.040Z,67.70
2023-04-09T12:52:38.157Z,67.50
2023-04-09T12:55:06.014Z,67.60
2023-04-09T12:57:32.857Z,67.80
2023-04-09T13:00:00.046Z,67.80
2023-04-09T13:02:27.140Z,67.90
2023-04-09T13:04:54.224Z,67.90
2023-04-09T13:07:21.303Z,67.80
2023-04-09T13:09:50.512Z,67.90
2023-04-09T13:12:17.705Z,68.00
2023-04-09T13:14:46.704Z,68.10
2023-04-09T13:17:14.065Z,68.30
2023-04-09T13:19:42.682Z,68.50
2023-04-09T13:22:10.603Z,68.90
2023-04-09T13:24:38.319Z,69.20
2023-04-09T13:27:06.078Z,69.40
2023-04-09T13:29:33.054Z,69.60
2023-04-09T13:32:01.875Z,69.90
2023-04-09T13:34:28.859Z,70.00
2023-04-09T13:36:56.962Z,70.20
2023-04-09T13:39:24.012Z,70.50
2023-04-09T13:41:51.065Z,70.70
2023-04-09T13:44:18.059Z,70.90
2023-04-09T13:46:45.123Z,70.90
2023-04-09T13:49:12.196Z,71.00
2023-04-09T13:51:39.126Z,71.00
2023-04-09T13:54:08.217Z,71.10
2023-04-09T13:56:35.077Z,71.30
2023-04-09T13:59:02.022Z,71.50
2023-04-09T14:01:30.321Z,71.50
2023-04-09T14:03:57.705Z,71.50
2023-04-09T14:06:24.742Z,71.70
2023-04-09T14:08:51.890Z,71.80
2023-04-09T14:11:19.084Z,71.90
2023-04-09T14:13:46.293Z,71.90
2023-04-09T14:16:13.350Z,71.80
2023-04-09T14:18:40.458Z,72.00
2023-04-09T14:21:09.865Z,72.40
2023-04-09T14:23:37.473Z,72.40
2023-04-09T14:26:05.602Z,72.10
2023-04-09T14:28:33.276Z,71.80
2023-04-09T14:31:00.607Z,71.60
2023-04-09T14:33:27.898Z,71.70
2023-04-09T14:35:55.006Z,71.60
2023-04-09T14:38:24.082Z,71.70
2023-04-09T14:40:51.498Z,71.60
2023-04-09T14:43:18.505Z,71.80
2023-04-09T14:45:45.467Z,71.40
2023-04-09T14:48:12.341Z,71.00
2023-04-09T14:50:39.413Z,70.40
2023-04-09T14:53:06.229Z,70.30
2023-04-09T14:55:33.101Z,70.40
2023-04-09T14:58:01.740Z,70.40
2023-04-09T15:00:28.766Z,70.50
2023-04-09T15:02:56.577Z,70.60
2023-04-09T15:05:23.793Z,70.40
2023-04-09T15:07:50.744Z,70.40
2023-04-09T15:10:17.810Z,70.50
2023-04-09T15:12:44.774Z,70.60
2023-04-09T15:15:13.779Z,70.70
2023-04-09T15:17:40.789Z,71.00
2023-04-09T15:20:08.050Z,71.10
2023-04-09T15:22:34.871Z,71.00
2023-04-09T15:25:01.995Z,71.10
2023-04-09T15:27:28.868Z,70.80
2023-04-09T15:29:55.853Z,70.40
2023-04-09T15:32:22.819Z,70.30
2023-04-09T15:34:50.055Z,70.50
2023-04-09T15:37:16.907Z,70.80
2023-04-09T15:39:43.965Z,70.90
2023-04-09T15:42:12.257Z,71.00
2023-04-09T15:44:41.694Z,71.30
2023-04-09T15:47:08.648Z,71.50
2023-04-09T15:49:37.128Z,71.60
2023-04-09T15:52:04.310Z,71.50
2023-04-09T15:54:31.237Z,71.70
2023-04-09T15:56:58.172Z,71.90
2023-04-09T15:59:25.148Z,72.20
2023-04-09T16:01:52.657Z,72.50
2023-04-09T16:04:19.652Z,72.80
2023-04-09T16:06:46.656Z,73.10
2023-04-09T16:09:13.549Z,73.40
2023-04-09T16:11:40.882Z,73.60
2023-04-09T16:14:09.388Z,73.70
2023-04-09T16:16:37.064Z,74.10
2023-04-09T16:19:03.956Z,74.20
2023-04-09T16:21:31.465Z,74.80
2023-04-09T16:23:58.356Z,74.80
2023-04-09T16:26:25.468Z,75.00
2023-04-09T16:28:52.643Z,75.20
2023-04-09T16:31:19.739Z,75.50
2023-04-09T16:33:46.656Z,75.70
2023-04-09T16:36:13.629Z,76.00
2023-04-09T16:38:41.775Z,76.20
2023-04-09T16:41:08.639Z,76.50
2023-04-09T16:43:36.032Z,76.40
2023-04-09T16:46:03.002Z,76.50
2023-04-09T16:48:29.954Z,76.60
2023-04-09T16:50:57.118Z,76.80
2023-04-09T16:53:23.946Z,76.70
2023-04-09T16:55:50.919Z,76.60
2023-04-09T16:58:17.798Z,76.90
2023-04-09T17:00:46.943Z,77.00
2023-04-09T17:03:14.887Z,77.30
2023-04-09T17:05:41.961Z,77.20
2023-04-09T17:08:08.780Z,77.00
2023-04-09T17:10:36.819Z,76.90
2023-04-09T17:13:03.726Z,77.40
2023-04-09T17:15:30.827Z,77.70
2023-04-09T17:17:58.572Z,77.40
2023-04-09T17:20:26.414Z,77.70
2023-04-09T17:22:53.326Z,77.80
2023-04-09T17:25:20.833Z,78.00
2023-04-09T17:27:47.800Z,78.10
2023-04-09T17:30:14.685Z,78.10
2023-04-09T17:32:43.852Z,78.30
2023-04-09T17:35:11.024Z,78.30
2023-04-09T17:37:38.748Z,78.40
2023-04-09T17:40:07.003Z,78.60
2023-04-09T17:42:33.895Z,78.50
2023-04-09T17:45:01.120Z,78.40
2023-04-09T17:47:28.044Z,78.80
2023-04-09T17:49:55.105Z,79.00
2023-04-09T17:52:22.646Z,79.10
2023-04-09T17:54:52.210Z,79.10
2023-04-09T17:57:19.149Z,79.10
2023-04-09T17:59:46.020Z,79.00
2023-04-09T18:02:13.074Z,79.00
2023-04-09T18:04:40.364Z,79.00
2023-04-09T18:07:07.378Z,79.20
2023-04-09T18:09:34.571Z,79.20
2023-04-09T18:12:02.841Z,79.20
2023-04-09T18:14:32.535Z,79.10
2023-04-09T18:16:59.757Z,79.10
2023-04-09T18:19:26.726Z,79.10
2023-04-09T18:21:53.766Z,79.00
2023-04-09T18:24:20.605Z,79.10
2023-04-09T18:26:47.610Z,79.00
2023-04-09T18:29:14.735Z,78.90
2023-04-09T18:31:41.792Z,79.00
2023-04-09T18:34:08.951Z,78.90
2023-04-09T18:36:35.853Z,79.10
2023-04-09T18:39:05.134Z,79.10
2023-04-09T18:41:32.237Z,79.00
2023-04-09T18:43:59.175Z,79.00
2023-04-09T18:46:26.780Z,79.00
2023-04-09T18:48:53.913Z,79.00
2023-04-09T18:51:21.187Z,79.00
2023-04-09T18:53:53.043Z,79.10
2023-04-09T18:56:20.479Z,79.10
2023-04-09T18:58:47.966Z,79.20
2023-04-09T19:01:14.850Z,79.10
2023-04-09T19:03:43.460Z,79.20
2023-04-09T19:06:14.808Z,79.20
2023-04-09T19:08:41.909Z,79.40
2023-04-09T19:11:08.962Z,79.50
2023-04-09T19:13:37.304Z,79.30
2023-04-09T19:16:04.664Z,79.30
2023-04-09T19:18:32.179Z,79.30
2023-04-09T19:20:59.045Z,79.20
2023-04-09T19:23:26.439Z,79.40
2023-04-09T19:25:55.320Z,79.50
2023-04-09T19:28:22.536Z,79.50
2023-04-09T19:30:52.400Z,79.60
2023-04-09T19:33:22.935Z,79.60
2023-04-09T19:35:50.409Z,79.60
2023-04-09T19:38:18.321Z,79.50
2023-04-09T19:40:46.138Z,79.50
2023-04-09T19:43:13.446Z,79.60
2023-04-09T19:45:40.498Z,79.50
2023-04-09T19:48:07.501Z,79.40
2023-04-09T19:50:38.576Z,79.40
2023-04-09T19:53:06.181Z,79.30
2023-04-09T19:55:37.479Z,79.20
2023-04-09T19:58:05.020Z,79.30
2023-04-09T20:00:32.701Z,79.40
2023-04-09T20:03:00.298Z,79.40
2023-04-09T20:05:27.420Z,79.30
2023-04-09T20:07:54.729Z,79.20
2023-04-09T20:10:21.864Z,79.10
2023-04-09T20:12:49.446Z,79.20
2023-04-09T20:15:17.741Z,79.30
2023-04-09T20:17:44.760Z,79.30
2023-04-09T20:20:12.562Z,79.10
2023-04-09T20:22:43.312Z,79.20
2023-04-09T20:25:11.745Z,79.50
2023-04-09T20:27:38.942Z,79.60
2023-04-09T20:30:08.778Z,79.30
2023-04-09T20:32:36.986Z,79.30
2023-04-09T20:35:04.898Z,79.20
2023-04-09T20:37:32.002Z,79.50
2023-04-09T20:39:59.367Z,79.70
2023-04-09T20:42:26.905Z,79.40
2023-04-09T20:44:54.229Z,79.30
2023-04-09T20:47:22.266Z,79.50
2023-04-09T20:49:51.255Z,79.60
2023-04-09T20:52:18.176Z,79.40
2023-04-09T20:54:45.555Z,79.40
2023-04-09T20:57:14.005Z,79.30
2023-04-09T20:59:42.136Z,79.30
2023-04-09T21:02:09.153Z,79.30
2023-04-09T21:04:36.219Z,79.30
2023-04-09T21:07:03.119Z,79.40
2023-04-09T21:09:31.594Z,79.70
2023-04-09T21:11:58.610Z,79.90
2023-04-09T21:14:25.629Z,79.80
2023-04-09T21:16:52.770Z,79.70
2023-04-09T21:19:19.783Z,79.70
2023-04-09T21:21:46.823Z,79.60
2023-04-09T21:24:13.973Z,79.70
2023-04-09T21:26:50.827Z,79.60
2023-04-09T21:29:19.680Z,79.60
2023-04-09T21:31:46.595Z,79.70
2023-04-09T21:34:13.500Z,79.70
2023-04-09T21:36:40.819Z,79.70
2023-04-09T21:39:07.941Z,79.70
2023-04-09T21:41:34.906Z,79.60
2023-04-09T21:44:08.159Z,79.60
2023-04-09T21:46:40.887Z,79.40
2023-04-09T21:49:08.246Z,79.50
2023-04-09T21:51:35.745Z,79.80
2023-04-09T21:54:07.030Z,79.80
2023-04-09T21:56:34.304Z,80.00
2023-04-09T21:59:01.538Z,80.20
2023-04-09T22:01:30.572Z,80.20
2023-04-09T22:03:58.309Z,80.20
2023-04-09T22:06:27.208Z,80.10
2023-04-09T22:08:56.816Z,80.10
2023-04-09T22:11:26.927Z,80.10
2023-04-09T22:13:54.132Z,79.90
2023-04-09T22:16:21.116Z,79.70
2023-04-09T22:18:48.073Z,79.60
2023-04-09T22:21:15.820Z,79.50
2023-04-09T22:23:42.934Z,79.40
2023-04-09T22:26:10.162Z,79.40
2023-04-09T22:28:37.077Z,79.40
2023-04-09T22:31:04.485Z,79.40
2023-04-09T22:33:31.866Z,79.60
2023-04-09T22:35:59.779Z,79.80
2023-04-09T22:38:26.836Z,79.50
2023-04-09T22:40:53.834Z,79.60
2023-04-09T22:43:20.727Z,79.60
2023-04-09T22:45:52.097Z,79.50
2023-04-09T22:48:19.323Z,79.50
2023-04-09T22:50:46.816Z,79.40
2023-04-09T22:53:19.020Z,79.50
2023-04-09T22:55:47.660Z,79.50
2023-04-09T22:58:15.147Z,79.60
2023-04-09T23:00:42.420Z,79.60
2023-04-09T23:03:09.712Z,79.50
2023-04-09T23:05:36.704Z,79.60
2023-04-09T23:08:03.693Z,79.50
2023-04-09T23:10:30.594Z,79.40
2023-04-09T23:12:57.527Z,79.40
2023-04-09T23:15:24.352Z,79.50
2023-04-09T23:17:52.156Z,79.50
2023-04-09T23:20:19.067Z,79.50
2023-04-09T23:22:46.203Z,79.60
2023-04-09T23:25:14.206Z,79.50
2023-04-09T23:27:41.160Z,79.30
2023-04-09T23:30:08.999Z,79.20
2023-04-09T23:32:35.942Z,79.20
2023-04-09T23:35:02.976Z,79.40
2023-04-09T23:37:29.898Z,79.60
2023-04-09T23:39:57.259Z,79.30
2023-04-09T23:42:24.217Z,78.90
2023-04-09T23:44:51.810Z,78.90
2023-04-09T23:47:18.730Z,79.10
2023-04-09T23:49:45.624Z,79.20
2023-04-09T23:52:12.473Z,79.40
2023-04-09T23:54:39.418Z,79.50
2023-04-09T23:57:07.604Z,79.30
2023-04-09T23:59:36.076Z,79.20
